createdAt,value
2022-11-30T00:01:24.310Z,101045.47
2022-11-30T00:03:56.509Z,101047.88
2022-11-30T00:06:24.729Z,101047.88
2022-11-30T00:08:58.456Z,101047.13
2022-11-30T00:11:28.573Z,101049.88
2022-11-30T00:13:55.628Z,101045.88
2022-11-30T00:16:23.075Z,101046.50
2022-11-30T00:18:50.931Z,101046.91
2022-11-30T00:21:18.309Z,101046.63
2022-11-30T00:23:47.426Z,101043.31
2022-11-30T00:26:17.950Z,101038.53
2022-11-30T00:28:46.062Z,101039.84
2022-11-30T00:31:15.909Z,101041.13
2022-11-30T00:33:42.854Z,101040.94
2022-11-30T00:36:16.043Z,101044.88
2022-11-30T00:38:43.658Z,101037.34
2022-11-30T00:41:11.324Z,101032.66
2022-11-30T00:43:38.370Z,101033.50
2022-11-30T00:46:06.188Z,101038.47
2022-11-30T00:48:33.117Z,101038.69
2022-11-30T00:51:00.046Z,101036.88
2022-11-30T00:53:27.273Z,101046.47
2022-11-30T00:55:54.368Z,101038.31
2022-11-30T00:58:21.397Z,101043.38
2022-11-30T01:00:48.431Z,101042.75
2022-11-30T01:03:15.352Z,101047.00
2022-11-30T01:05:43.291Z,101048.34
2022-11-30T01:08:11.668Z,101040.28
2022-11-30T01:10:41.297Z,101046.72
2022-11-30T01:13:08.466Z,101048.38
2022-11-30T01:15:41.918Z,101057.53
2022-11-30T01:18:08.812Z,101062.63
2022-11-30T01:20:35.805Z,101068.16
2022-11-30T01:23:02.670Z,101063.31
2022-11-30T01:25:29.502Z,101073.00
2022-11-30T01:27:56.367Z,101068.41
2022-11-30T01:30:23.232Z,101069.75
2022-11-30T01:32:50.065Z,101060.84
2022-11-30T01:35:16.959Z,101059.16
2022-11-30T01:37:43.878Z,101060.50
2022-11-30T01:40:12.233Z,101054.97
2022-11-30T01:42:45.661Z,101059.84
2022-11-30T01:45:13.700Z,101061.41
2022-11-30T01:47:55.397Z,101069.41
2022-11-30T01:50:28.576Z,101060.66
2022-11-30T01:52:57.501Z,101060.41
2022-11-30T01:55:37.323Z,101061.59
2022-11-30T01:58:09.989Z,101050.09
2022-11-30T02:00:36.989Z,101053.94
2022-11-30T02:03:23.689Z,101061.81
2022-11-30T02:05:50.519Z,101056.94
2022-11-30T02:08:18.044Z,101059.34
2022-11-30T02:10:52.643Z,101061.59
2022-11-30T02:13:43.965Z,101060.88
2022-11-30T02:16:46.101Z,101062.00
2022-11-30T02:19:32.157Z,101052.66
2022-11-30T02:22:54.072Z,101054.16
2022-11-30T02:26:07.390Z,101060.16
2022-11-30T02:29:38.108Z,101057.84
2022-11-30T02:32:12.828Z,101062.19
2022-11-30T02:34:42.291Z,101055.38
2022-11-30T02:37:12.593Z,101059.63
2022-11-30T02:39:39.501Z,101064.41
2022-11-30T02:42:14.758Z,101063.91
2022-11-30T02:44:47.434Z,101067.94
2022-11-30T02:47:23.004Z,101069.44
2022-11-30T02:50:01.642Z,101067.06
2022-11-30T02:52:30.245Z,101066.22
2022-11-30T02:55:06.685Z,101058.38
2022-11-30T02:57:34.490Z,101068.50
2022-11-30T03:00:06.872Z,101064.81
2022-11-30T03:02:34.434Z,101062.56
2022-11-30T03:05:01.348Z,101067.75
2022-11-30T03:07:28.229Z,101068.56
2022-11-30T03:09:55.475Z,101069.38
2022-11-30T03:12:22.922Z,101063.81
2022-11-30T03:14:49.908Z,101067.81
2022-11-30T03:17:16.795Z,101068.38
2022-11-30T03:19:43.633Z,101068.56
2022-11-30T03:22:10.683Z,101069.78
2022-11-30T03:24:37.486Z,101069.31
2022-11-30T03:27:04.482Z,101070.53
2022-11-30T03:29:31.376Z,101072.88
2022-11-30T03:31:58.264Z,101076.56
2022-11-30T03:34:27.290Z,101077.31
2022-11-30T03:36:54.840Z,101081.50
2022-11-30T03:39:21.899Z,101083.13
2022-11-30T03:41:48.780Z,101082.38
2022-11-30T03:44:15.841Z,101084.97
2022-11-30T03:46:43.028Z,101083.88
2022-11-30T03:49:10.005Z,101080.81
2022-11-30T03:51:36.911Z,101080.41
2022-11-30T03:54:04.133Z,101072.50
2022-11-30T03:56:31.057Z,101073.91
2022-11-30T03:58:57.947Z,101082.31
2022-11-30T04:01:25.101Z,101081.56
2022-11-30T04:03:53.006Z,101084.06
2022-11-30T04:06:21.433Z,101091.22
2022-11-30T04:08:48.751Z,101083.75
2022-11-30T04:11:15.705Z,101090.38
2022-11-30T04:13:43.506Z,101086.84
2022-11-30T04:16:11.326Z,101093.41
2022-11-30T04:18:39.279Z,101089.06
2022-11-30T04:21:07.360Z,101082.00
2022-11-30T04:23:38.570Z,101087.50
2022-11-30T04:26:07.616Z,101086.28
2022-11-30T04:28:35.293Z,101080.81
2022-11-30T04:31:03.077Z,101080.81
2022-11-30T04:33:31.030Z,101084.41
2022-11-30T04:36:01.441Z,101081.56
2022-11-30T04:38:29.521Z,101084.31
2022-11-30T04:40:56.828Z,101079.16
2022-11-30T04:43:23.953Z,101081.66
2022-11-30T04:45:51.586Z,101089.47
2022-11-30T04:48:19.695Z,101089.72
2022-11-30T04:50:46.533Z,101078.06
2022-11-30T04:53:13.529Z,101088.25
2022-11-30T04:55:40.694Z,101084.25
2022-11-30T04:58:08.005Z,101086.00
2022-11-30T05:00:35.909Z,101084.19
2022-11-30T05:03:03.050Z,101084.19
2022-11-30T05:05:29.964Z,101083.75
2022-11-30T05:07:59.496Z,101089.06
2022-11-30T05:10:28.457Z,101078.66
2022-11-30T05:12:55.426Z,101089.81
2022-11-30T05:15:22.546Z,101085.16
2022-11-30T05:17:49.392Z,101090.88
2022-11-30T05:20:16.263Z,101082.00
2022-11-30T05:22:43.248Z,101094.72
2022-11-30T05:25:10.357Z,101089.72
2022-11-30T05:27:37.778Z,101097.00
2022-11-30T05:30:06.463Z,101089.63
2022-11-30T05:32:33.317Z,101103.47
2022-11-30T05:35:00.434Z,101090.63
2022-11-30T05:37:27.621Z,101098.13
2022-11-30T05:39:54.472Z,101097.19
2022-11-30T05:42:21.719Z,101099.53
2022-11-30T05:44:48.944Z,101103.72
2022-11-30T05:47:16.741Z,101101.56
2022-11-30T05:49:43.732Z,101105.50
2022-11-30T05:52:10.685Z,101106.47
2022-11-30T05:54:37.486Z,101105.97
2022-11-30T05:57:05.364Z,101114.13
2022-11-30T05:59:32.254Z,101108.88
2022-11-30T06:01:59.158Z,101105.66
2022-11-30T06:04:26.187Z,101100.13
2022-11-30T06:06:55.553Z,101102.97
2022-11-30T06:09:23.191Z,101108.53
2022-11-30T06:11:50.261Z,101110.53
2022-11-30T06:14:17.382Z,101109.63
2022-11-30T06:16:44.669Z,101111.13
2022-11-30T06:19:11.546Z,101108.34
2022-11-30T06:21:38.431Z,101108.53
2022-11-30T06:24:05.626Z,101109.19
2022-11-30T06:26:32.453Z,101102.63
2022-11-30T06:28:59.330Z,101112.47
2022-11-30T06:31:26.198Z,101105.50
2022-11-30T06:33:56.568Z,101108.19
2022-11-30T06:36:23.732Z,101109.44
2022-11-30T06:38:51.922Z,101109.38
2022-11-30T06:41:19.296Z,101113.72
2022-11-30T06:43:46.170Z,101104.97
2022-11-30T06:46:13.302Z,101109.19
2022-11-30T06:48:40.249Z,101114.06
2022-11-30T06:51:08.624Z,101117.97
2022-11-30T06:53:36.658Z,101117.06
2022-11-30T06:56:10.499Z,101115.97
2022-11-30T06:58:39.514Z,101118.59
2022-11-30T07:01:09.219Z,101110.69
2022-11-30T07:03:36.630Z,101120.03
2022-11-30T07:06:13.773Z,101125.38
2022-11-30T07:08:42.651Z,101125.78
2022-11-30T07:11:11.455Z,101126.38
2022-11-30T07:13:38.653Z,101127.28
2022-11-30T07:16:08.717Z,101128.81
2022-11-30T07:18:35.695Z,101125.94
2022-11-30T07:21:04.923Z,101132.84
2022-11-30T07:23:55.834Z,101129.47
2022-11-30T07:26:24.218Z,101134.50
2022-11-30T07:28:55.100Z,101123.28
2022-11-30T07:31:26.430Z,101127.78
2022-11-30T07:33:53.861Z,101124.25
2022-11-30T07:36:23.150Z,101124.25
2022-11-30T07:38:50.153Z,101126.28
2022-11-30T07:41:17.308Z,101123.91
2022-11-30T07:43:44.230Z,101125.94
2022-11-30T07:46:14.220Z,101123.19
2022-11-30T07:48:41.422Z,101131.91
2022-11-30T07:51:14.140Z,101135.44
2022-11-30T07:53:41.688Z,101128.19
2022-11-30T07:56:12.836Z,101126.50
2022-11-30T07:58:40.236Z,101139.53
2022-11-30T08:01:11.105Z,101134.13
2022-11-30T08:03:38.128Z,101134.22
2022-11-30T08:06:10.279Z,101149.38
2022-11-30T08:08:40.148Z,101146.22
2022-11-30T08:11:09.876Z,101148.00
2022-11-30T08:13:37.069Z,101147.25
2022-11-30T08:16:07.018Z,101152.69
2022-11-30T08:18:34.162Z,101151.59
2022-11-30T08:21:04.380Z,101149.69
2022-11-30T08:23:34.768Z,101147.41
2022-11-30T08:26:14.736Z,101147.34
2022-11-30T08:28:44.683Z,101155.53
2022-11-30T08:31:16.947Z,101156.44
2022-11-30T08:33:44.182Z,101154.38
2022-11-30T08:36:17.129Z,101151.78
2022-11-30T08:38:45.541Z,101154.44
2022-11-30T08:41:16.772Z,101164.84
2022-11-30T08:43:43.676Z,101163.06
2022-11-30T08:46:35.161Z,101166.69
2022-11-30T08:49:20.420Z,101164.44
2022-11-30T08:52:16.019Z,101172.13
2022-11-30T08:54:34.978Z,101169.34
2022-11-30T08:57:01.939Z,101170.38
2022-11-30T08:59:31.566Z,101176.25
2022-11-30T09:01:58.450Z,101179.72
2022-11-30T09:04:26.032Z,101183.75
2022-11-30T09:06:52.907Z,101181.81
2022-11-30T09:09:19.847Z,101184.66
2022-11-30T09:11:46.716Z,101187.16
2022-11-30T09:14:13.545Z,101189.72
2022-11-30T09:16:40.464Z,101188.75
2022-11-30T09:19:07.334Z,101191.38
2022-11-30T09:21:34.266Z,101192.03
2022-11-30T09:24:01.148Z,101194.38
2022-11-30T09:26:28.094Z,101190.22
2022-11-30T09:28:54.948Z,101197.41
2022-11-30T09:31:24.365Z,101203.63
2022-11-30T09:33:52.392Z,101206.63
2022-11-30T09:36:21.606Z,101200.66
2022-11-30T09:38:49.011Z,101199.84
2022-11-30T09:41:34.256Z,101196.72
2022-11-30T09:44:55.255Z,101201.91
2022-11-30T09:47:55.487Z,101201.16
2022-11-30T09:50:26.857Z,101200.16
2022-11-30T09:52:58.781Z,101194.38
2022-11-30T09:55:39.265Z,101198.19
2022-11-30T09:58:07.525Z,101185.44
2022-11-30T10:00:36.864Z,101191.28
2022-11-30T10:03:05.943Z,101190.59
2022-11-30T10:06:09.836Z,101189.91
2022-11-30T10:08:51.459Z,101193.34
2022-11-30T10:11:28.210Z,101193.69
2022-11-30T10:14:03.828Z,101195.59
2022-11-30T10:17:08.790Z,101193.75
2022-11-30T10:20:22.941Z,101189.84
2022-11-30T10:23:29.891Z,101186.75
2022-11-30T10:26:19.152Z,101187.41
2022-11-30T10:28:55.366Z,101188.00
2022-11-30T10:31:39.653Z,101184.28
2022-11-30T10:34:35.750Z,101182.56
2022-11-30T10:37:12.168Z,101185.38
2022-11-30T10:40:01.746Z,101177.31
2022-11-30T10:42:50.103Z,101163.97
2022-11-30T10:45:23.434Z,101163.00
2022-11-30T10:48:01.974Z,101159.44
2022-11-30T10:50:31.176Z,101158.44
2022-11-30T10:53:00.377Z,101154.81
2022-11-30T10:55:36.615Z,101159.44
2022-11-30T10:58:23.408Z,101147.09
2022-11-30T11:01:06.800Z,101149.84
2022-11-30T11:03:34.351Z,101153.69
2022-11-30T11:06:15.278Z,101153.88
2022-11-30T11:08:45.364Z,101152.19
2022-11-30T11:11:36.626Z,101150.63
2022-11-30T11:14:26.215Z,101153.59
2022-11-30T11:17:02.789Z,101152.28
2022-11-30T11:19:36.466Z,101148.81
2022-11-30T11:22:07.715Z,101151.09
2022-11-30T11:24:35.200Z,101153.88
2022-11-30T11:27:02.262Z,101146.22
2022-11-30T11:29:34.869Z,101148.91
2022-11-30T11:32:24.720Z,101144.91
2022-11-30T11:34:51.800Z,101138.75
2022-11-30T11:37:31.129Z,101136.31
2022-11-30T11:40:17.997Z,101142.25
2022-11-30T11:42:48.587Z,101138.16
2022-11-30T11:45:23.158Z,101138.97
2022-11-30T11:48:01.537Z,101132.81
2022-11-30T11:51:05.585Z,101135.91
2022-11-30T11:53:48.677Z,101141.94
2022-11-30T11:56:32.168Z,101133.00
2022-11-30T11:59:09.687Z,101139.56
2022-11-30T12:02:07.288Z,101143.56
2022-11-30T12:04:48.552Z,101148.13
2022-11-30T12:07:23.390Z,101139.16
2022-11-30T12:10:52.588Z,101139.88
2022-11-30T12:13:23.736Z,101143.13
2022-11-30T12:16:12.253Z,101139.56
2022-11-30T12:19:03.657Z,101149.84
2022-11-30T12:21:36.521Z,101140.28
2022-11-30T12:24:34.228Z,101144.97
2022-11-30T12:27:30.118Z,101151.72
2022-11-30T12:30:10.071Z,101144.03
2022-11-30T12:33:07.802Z,101141.44
2022-11-30T12:36:00.011Z,101139.81
2022-11-30T12:38:50.020Z,101134.38
2022-11-30T12:41:36.693Z,101139.06
2022-11-30T12:44:28.941Z,101137.66
2022-11-30T12:47:07.914Z,101135.69
2022-11-30T12:50:00.791Z,101131.91
2022-11-30T12:53:03.362Z,101137.19
2022-11-30T12:55:57.394Z,101138.75
2022-11-30T12:58:45.860Z,101139.72
2022-11-30T13:01:25.381Z,101147.88
2022-11-30T13:04:09.732Z,101143.72
2022-11-30T13:06:51.441Z,101147.28
2022-11-30T13:09:40.470Z,101145.59
2022-11-30T13:12:36.069Z,101143.03
2022-11-30T13:15:17.667Z,101142.84
2022-11-30T13:17:45.750Z,101137.06
2022-11-30T13:20:54.596Z,101144.59
2022-11-30T13:23:56.892Z,101147.84
2022-11-30T13:26:49.233Z,101143.72
2022-11-30T13:30:03.733Z,101137.69
2022-11-30T13:32:57.453Z,101139.97
2022-11-30T13:35:30.059Z,101144.13
2022-11-30T13:38:35.693Z,101141.34
2022-11-30T13:41:03.420Z,101142.41
2022-11-30T13:43:45.517Z,101148.78
2022-11-30T13:46:23.749Z,101143.78
2022-11-30T13:49:20.217Z,101138.69
2022-11-30T13:52:01.432Z,101143.09
2022-11-30T13:54:48.356Z,101147.53
2022-11-30T13:57:27.456Z,101150.53
2022-11-30T14:00:01.917Z,101141.22
2022-11-30T14:02:36.377Z,101139.81
2022-11-30T14:05:18.649Z,101149.13
2022-11-30T14:08:00.805Z,101145.88
2022-11-30T14:10:35.988Z,101152.47
2022-11-30T14:13:05.252Z,101155.56
2022-11-30T14:15:41.764Z,101146.41
2022-11-30T14:18:08.556Z,101149.59
2022-11-30T14:20:50.923Z,101158.66
2022-11-30T14:23:55.343Z,101157.41
2022-11-30T14:26:28.874Z,101162.28
2022-11-30T14:29:08.352Z,101158.06
2022-11-30T14:31:47.148Z,101160.97
2022-11-30T14:34:28.317Z,101164.38
2022-11-30T14:37:06.684Z,101159.47
2022-11-30T14:39:37.630Z,101158.63
2022-11-30T14:42:06.519Z,101163.63
2022-11-30T14:44:40.518Z,101160.38
2022-11-30T14:47:35.358Z,101160.31
2022-11-30T14:50:08.177Z,101164.59
2022-11-30T14:52:55.392Z,101169.91
2022-11-30T14:55:41.463Z,101162.81
2022-11-30T14:58:55.903Z,101156.66
2022-11-30T15:01:27.341Z,101155.44
2022-11-30T15:04:05.614Z,101168.38
2022-11-30T15:06:33.916Z,101161.88
2022-11-30T15:09:02.035Z,101157.31
2022-11-30T15:11:29.333Z,101159.81
2022-11-30T15:14:07.786Z,101163.63
2022-11-30T15:16:34.695Z,101158.59
2022-11-30T15:19:36.314Z,101157.69
2022-11-30T15:22:03.712Z,101169.13
2022-11-30T15:24:30.851Z,101164.72
2022-11-30T15:27:14.147Z,101168.75
2022-11-30T15:29:50.644Z,101173.22
2022-11-30T15:32:23.026Z,101169.06
2022-11-30T15:34:56.581Z,101168.53
2022-11-30T15:37:38.691Z,101170.97
2022-11-30T15:40:10.681Z,101173.22
2022-11-30T15:42:40.337Z,101172.84
2022-11-30T15:45:30.082Z,101175.44
2022-11-30T15:47:59.272Z,101169.66
2022-11-30T15:50:29.173Z,101178.78
2022-11-30T15:53:03.292Z,101176.19
2022-11-30T15:55:51.704Z,101181.09
2022-11-30T15:58:46.122Z,101177.84
2022-11-30T16:01:20.672Z,101181.56
2022-11-30T16:03:59.298Z,101182.41
2022-11-30T16:06:28.948Z,101175.34
2022-11-30T16:08:57.686Z,101176.28
2022-11-30T16:11:24.570Z,101183.31
2022-11-30T16:13:51.438Z,101180.34
2022-11-30T16:16:23.707Z,101197.78
2022-11-30T16:18:50.955Z,101190.81
2022-11-30T16:21:20.421Z,101196.41
2022-11-30T16:23:48.689Z,101193.53
2022-11-30T16:29:05.138Z,101194.34
2022-11-30T16:31:32.125Z,101188.69
2022-11-30T16:33:59.123Z,101197.53
2022-11-30T16:36:25.981Z,101194.34
2022-11-30T16:38:53.776Z,101190.91
2022-11-30T16:41:25.347Z,101197.53
2022-11-30T16:43:54.941Z,101201.72
2022-11-30T16:46:27.738Z,101205.34
2022-11-30T16:48:55.295Z,101204.97
2022-11-30T16:51:29.513Z,101213.31
2022-11-30T16:53:56.504Z,101215.66
2022-11-30T16:56:24.240Z,101214.91
2022-11-30T16:58:51.416Z,101218.19
2022-11-30T17:01:36.140Z,101223.56
2022-11-30T17:04:19.692Z,101225.88
2022-11-30T17:06:50.476Z,101225.88
2022-11-30T17:09:19.097Z,101223.19
2022-11-30T17:11:50.301Z,101218.72
2022-11-30T17:14:18.078Z,101239.84
2022-11-30T17:16:44.992Z,101230.66
2022-11-30T17:19:12.257Z,101232.41
2022-11-30T17:21:40.113Z,101225.59
2022-11-30T17:24:07.301Z,101233.34
2022-11-30T17:26:34.302Z,101237.63
2022-11-30T17:29:01.526Z,101230.75
2022-11-30T17:31:28.513Z,101238.44
2022-11-30T17:33:55.386Z,101239.94
2022-11-30T17:36:23.253Z,101240.22
2022-11-30T17:38:50.235Z,101238.25
2022-11-30T17:41:20.023Z,101235.53
2022-11-30T17:43:48.462Z,101241.84
2022-11-30T17:46:17.988Z,101241.38
2022-11-30T17:48:45.004Z,101246.44
2022-11-30T17:51:12.494Z,101251.53
2022-11-30T17:53:41.101Z,101249.53
2022-11-30T17:56:14.570Z,101250.75
2022-11-30T17:58:44.545Z,101252.59
2022-11-30T18:01:25.282Z,101251.00
2022-11-30T18:03:53.824Z,101253.63
2022-11-30T18:06:21.006Z,101257.56
2022-11-30T18:08:48.345Z,101254.28
2022-11-30T18:11:22.757Z,101253.03
2022-11-30T18:13:53.420Z,101256.31
2022-11-30T18:16:30.406Z,101253.78
2022-11-30T18:18:58.612Z,101253.88
2022-11-30T18:21:29.593Z,101254.91
2022-11-30T18:23:58.696Z,101259.09
2022-11-30T18:26:26.525Z,101266.06
2022-11-30T18:28:59.003Z,101273.22
2022-11-30T18:31:27.795Z,101272.56
2022-11-30T18:34:00.041Z,101271.22
2022-11-30T18:36:27.537Z,101277.22
2022-11-30T18:38:55.098Z,101280.28
2022-11-30T18:41:24.133Z,101280.47
2022-11-30T18:43:50.971Z,101284.00
2022-11-30T18:46:17.945Z,101280.56
2022-11-30T18:48:50.138Z,101289.31
2022-11-30T18:51:26.461Z,101277.66
2022-11-30T18:54:00.140Z,101285.47
2022-11-30T18:56:30.305Z,101284.09
2022-11-30T18:59:01.050Z,101276.31
2022-11-30T19:01:29.221Z,101284.13
2022-11-30T19:04:02.943Z,101284.22
2022-11-30T19:06:34.541Z,101278.31
2022-11-30T19:09:11.013Z,101283.38
2022-11-30T19:11:40.169Z,101276.97
2022-11-30T19:14:07.286Z,101279.91
2022-11-30T19:16:35.762Z,101285.53
2022-11-30T19:19:07.161Z,101291.53
2022-11-30T19:21:34.747Z,101289.00
2022-11-30T19:24:01.699Z,101291.59
2022-11-30T19:26:28.843Z,101296.66
2022-11-30T19:28:57.349Z,101297.00
2022-11-30T19:31:25.356Z,101295.06
2022-11-30T19:33:54.556Z,101297.16
2022-11-30T19:36:29.989Z,101299.34
2022-11-30T19:38:59.405Z,101306.81
2022-11-30T19:41:27.429Z,101299.00
2022-11-30T19:44:03.667Z,101302.78
2022-11-30T19:46:32.890Z,101312.28
2022-11-30T19:49:01.894Z,101314.38
2022-11-30T19:51:30.632Z,101310.59
2022-11-30T19:53:59.162Z,101317.31
2022-11-30T19:56:28.602Z,101321.53
2022-11-30T19:59:01.189Z,101319.56
2022-11-30T20:01:31.310Z,101323.22
2022-11-30T20:03:58.459Z,101322.28
2022-11-30T20:06:28.532Z,101327.81
2022-11-30T20:08:55.928Z,101327.66
2022-11-30T20:11:23.423Z,101331.44
2022-11-30T20:13:51.474Z,101323.53
2022-11-30T20:16:21.222Z,101333.59
2022-11-30T20:18:57.952Z,101338.66
2022-11-30T20:21:28.454Z,101329.06
2022-11-30T20:23:59.172Z,101333.03
2022-11-30T20:26:33.067Z,101329.97
2022-11-30T20:29:02.179Z,101333.13
2022-11-30T20:31:30.902Z,101328.47
2022-11-30T20:33:58.628Z,101330.06
2022-11-30T20:36:25.803Z,101332.19
2022-11-30T20:38:52.733Z,101331.41
2022-11-30T20:41:23.253Z,101329.25
2022-11-30T20:43:50.967Z,101324.69
2022-11-30T20:46:33.932Z,101334.97
2022-11-30T20:49:03.864Z,101325.47
2022-11-30T20:51:34.654Z,101329.31
2022-11-30T20:54:06.907Z,101329.41
2022-11-30T20:56:37.072Z,101336.78
2022-11-30T20:59:13.754Z,101332.16
2022-11-30T21:01:43.544Z,101341.03
2022-11-30T21:04:10.844Z,101335.03
2022-11-30T21:06:38.288Z,101333.00
2022-11-30T21:09:05.538Z,101334.94
2022-11-30T21:11:32.436Z,101332.75
2022-11-30T21:13:59.487Z,101339.13
2022-11-30T21:16:29.446Z,101346.94
2022-11-30T21:18:58.909Z,101343.31
2022-11-30T21:21:32.292Z,101338.53
2022-11-30T21:24:02.421Z,101343.47
2022-11-30T21:26:36.020Z,101351.13
2022-11-30T21:29:15.835Z,101348.84
2022-11-30T21:31:43.342Z,101350.69
2022-11-30T21:34:10.614Z,101349.59
2022-11-30T21:36:37.590Z,101348.59
2022-11-30T21:39:07.407Z,101346.34
2022-11-30T21:41:39.563Z,101332.56
2022-11-30T21:44:11.039Z,101345.44
2022-11-30T21:46:38.011Z,101341.81
2022-11-30T21:49:04.909Z,101349.31
2022-11-30T21:51:32.311Z,101349.97
2022-11-30T21:54:03.589Z,101342.50
2022-11-30T21:56:34.233Z,101341.31
2022-11-30T21:59:02.105Z,101338.47
2022-11-30T22:01:35.035Z,101345.69
2022-11-30T22:04:04.396Z,101342.16
2022-11-30T22:06:33.721Z,101339.72
2022-11-30T22:09:07.747Z,101347.47
2022-11-30T22:11:39.972Z,101345.44
2022-11-30T22:14:11.712Z,101346.13
2022-11-30T22:16:38.830Z,101354.00
2022-11-30T22:19:06.780Z,101352.47
2022-11-30T22:21:34.838Z,101349.72
2022-11-30T22:24:09.731Z,101347.69
2022-11-30T22:26:39.739Z,101340.91
2022-11-30T22:29:19.929Z,101346.63
2022-11-30T22:31:49.958Z,101353.94
2022-11-30T22:34:17.120Z,101353.84
2022-11-30T22:36:46.106Z,101353.94
2022-11-30T22:39:21.115Z,101350.16
2022-11-30T22:41:55.216Z,101348.72
2022-11-30T22:44:23.640Z,101349.66
2022-11-30T22:46:50.697Z,101345.38
2022-11-30T22:49:21.075Z,101339.72
2022-11-30T22:51:49.323Z,101336.34
2022-11-30T22:54:16.588Z,101345.28
2022-11-30T22:56:49.598Z,101347.69
2022-11-30T22:59:16.645Z,101346.63
2022-11-30T23:01:47.588Z,101348.75
2022-11-30T23:04:18.404Z,101348.97
2022-11-30T23:06:47.484Z,101338.53
2022-11-30T23:09:18.442Z,101349.75
2022-11-30T23:11:45.464Z,101340.69
2022-11-30T23:14:12.547Z,101344.44
2022-11-30T23:16:40.555Z,101348.78
2022-11-30T23:19:08.620Z,101349.41
2022-11-30T23:21:41.799Z,101343.38
2022-11-30T23:24:15.703Z,101346.28
2022-11-30T23:26:43.205Z,101346.09
2022-11-30T23:29:15.266Z,101339.78
2022-11-30T23:31:43.991Z,101348.66
2022-11-30T23:34:16.123Z,101342.00
2022-11-30T23:36:43.513Z,101334.81
2022-11-30T23:39:14.050Z,101339.38
2022-11-30T23:41:41.215Z,101339.38
2022-11-30T23:44:09.797Z,101344.59
2022-11-30T23:46:37.256Z,101338.50
2022-11-30T23:49:04.561Z,101339.78
2022-11-30T23:51:31.535Z,101334.50
2022-11-30T23:53:58.393Z,101346.19
2022-11-30T23:56:25.287Z,101342.91
2022-11-30T23:58:52.692Z,101341.06
